createdAt,value
2022-07-26T00:00:12.645Z,25.26
2022-07-26T00:02:47.169Z,25.22
2022-07-26T00:05:16.383Z,25.23
2022-07-26T00:07:44.169Z,25.26
2022-07-26T00:10:12.151Z,25.22
2022-07-26T00:12:39.750Z,25.26
2022-07-26T00:15:08.819Z,25.24
2022-07-26T00:17:35.569Z,25.27
2022-07-26T00:20:02.835Z,25.21
2022-07-26T00:22:35.520Z,25.19
2022-07-26T00:25:07.458Z,25.14
2022-07-26T00:27:37.991Z,25.14
2022-07-26T00:30:07.242Z,25.16
2022-07-26T00:32:34.004Z,25.19
2022-07-26T00:35:00.717Z,25.19
2022-07-26T00:37:27.474Z,25.25
2022-07-26T00:39:54.203Z,25.01
2022-07-26T00:42:20.870Z,24.91
2022-07-26T00:44:48.014Z,24.94
2022-07-26T00:47:15.474Z,24.96
2022-07-26T00:49:42.996Z,25.00
2022-07-26T00:52:10.233Z,25.04
2022-07-26T00:54:38.136Z,25.04
2022-07-26T00:57:05.178Z,24.88
2022-07-26T00:59:32.127Z,24.70
2022-07-26T01:01:58.873Z,24.62
2022-07-26T01:04:25.831Z,24.43
2022-07-26T01:06:53.353Z,24.50
2022-07-26T01:09:20.094Z,24.63
2022-07-26T01:11:46.932Z,24.67
2022-07-26T01:14:13.711Z,24.72
2022-07-26T01:16:40.783Z,24.65
2022-07-26T01:19:07.501Z,24.60
2022-07-26T01:21:34.427Z,24.61
2022-07-26T01:24:01.250Z,24.65
2022-07-26T01:26:28.393Z,24.68
2022-07-26T01:28:55.109Z,24.69
2022-07-26T01:31:22.041Z,24.71
2022-07-26T01:33:49.522Z,24.66
2022-07-26T01:36:16.415Z,24.59
2022-07-26T01:38:43.434Z,24.52
2022-07-26T01:41:10.105Z,24.48
2022-07-26T01:43:37.347Z,24.45
2022-07-26T01:46:05.550Z,24.41
2022-07-26T01:48:32.422Z,24.50
2022-07-26T01:50:59.257Z,24.44
2022-07-26T01:53:25.962Z,24.45
2022-07-26T01:55:52.687Z,24.44
2022-07-26T01:58:19.687Z,24.41
2022-07-26T02:00:46.363Z,24.40
2022-07-26T02:03:13.082Z,24.40
2022-07-26T02:05:40.014Z,24.28
2022-07-26T02:08:06.908Z,24.21
2022-07-26T02:10:52.466Z,24.29
2022-07-26T02:13:19.319Z,24.28
2022-07-26T02:15:46.121Z,24.21
2022-07-26T02:18:13.228Z,24.22
2022-07-26T02:20:39.946Z,24.27
2022-07-26T02:23:06.701Z,24.23
2022-07-26T02:25:33.439Z,24.17
2022-07-26T02:28:01.588Z,24.16
2022-07-26T02:30:29.107Z,24.19
2022-07-26T02:32:56.115Z,24.20
2022-07-26T02:35:22.811Z,24.17
2022-07-26T02:37:49.453Z,24.12
2022-07-26T02:40:19.303Z,24.07
2022-07-26T02:42:46.367Z,24.23
2022-07-26T02:45:13.102Z,24.08
2022-07-26T02:47:52.895Z,23.92
2022-07-26T02:50:22.182Z,23.92
2022-07-26T02:52:48.954Z,23.88
2022-07-26T02:55:16.806Z,23.78
2022-07-26T02:57:46.497Z,23.77
2022-07-26T03:00:14.342Z,23.78
2022-07-26T03:02:41.224Z,23.59
2022-07-26T03:05:08.272Z,23.42
2022-07-26T03:07:35.751Z,23.41
2022-07-26T03:10:02.719Z,23.39
2022-07-26T03:12:30.924Z,23.33
2022-07-26T03:14:57.673Z,23.25
2022-07-26T03:17:24.406Z,23.22
2022-07-26T03:19:51.047Z,23.15
2022-07-26T03:22:18.018Z,23.07
2022-07-26T03:24:44.698Z,23.05
2022-07-26T03:27:11.382Z,23.00
2022-07-26T03:29:38.120Z,22.98
2022-07-26T03:32:05.045Z,22.94
2022-07-26T03:34:31.866Z,22.93
2022-07-26T03:36:58.791Z,22.92
2022-07-26T03:39:25.615Z,22.93
2022-07-26T03:41:52.310Z,22.90
2022-07-26T03:44:19.162Z,22.81
2022-07-26T03:46:45.905Z,22.68
2022-07-26T03:49:16.582Z,22.55
2022-07-26T03:51:44.260Z,22.48
2022-07-26T03:54:11.676Z,22.47
2022-07-26T03:56:39.600Z,22.48
2022-07-26T03:59:10.478Z,22.46
2022-07-26T04:01:42.198Z,22.40
2022-07-26T04:04:11.019Z,22.42
2022-07-26T04:06:38.821Z,22.40
2022-07-26T04:09:07.332Z,22.36
2022-07-26T04:11:35.375Z,22.37
2022-07-26T04:14:02.349Z,22.30
2022-07-26T04:16:29.265Z,22.24
2022-07-26T04:18:56.082Z,22.21
2022-07-26T04:21:23.120Z,22.19
2022-07-26T04:23:51.570Z,22.13
2022-07-26T04:26:20.231Z,22.14
2022-07-26T04:28:47.196Z,22.09
2022-07-26T04:31:14.148Z,22.02
2022-07-26T04:33:41.197Z,21.95
2022-07-26T04:36:08.226Z,21.91
2022-07-26T04:38:34.991Z,21.86
2022-07-26T04:41:01.821Z,21.93
2022-07-26T04:43:28.525Z,21.99
2022-07-26T04:45:57.620Z,22.03
2022-07-26T04:48:25.615Z,22.00
2022-07-26T04:50:52.725Z,22.03
2022-07-26T04:53:19.567Z,22.02
2022-07-26T04:55:46.371Z,22.02
2022-07-26T04:58:13.353Z,21.99
2022-07-26T05:01:08.850Z,21.95
2022-07-26T05:03:27.672Z,21.95
2022-07-26T05:05:54.572Z,21.93
2022-07-26T05:08:21.371Z,21.94
2022-07-26T05:10:54.592Z,21.92
2022-07-26T05:13:23.112Z,21.95
2022-07-26T05:15:57.094Z,21.98
2022-07-26T05:18:23.783Z,22.04
2022-07-26T05:20:51.827Z,22.07
2022-07-26T05:23:20.328Z,22.11
2022-07-26T05:25:47.231Z,22.18
2022-07-26T05:28:13.922Z,22.23
2022-07-26T05:30:40.684Z,22.22
2022-07-26T05:33:07.439Z,22.25
2022-07-26T05:35:34.127Z,22.26
2022-07-26T05:38:01.062Z,22.22
2022-07-26T05:40:27.852Z,22.17
2022-07-26T05:42:54.520Z,22.17
2022-07-26T05:45:21.436Z,22.18
2022-07-26T05:47:52.539Z,22.21
2022-07-26T05:50:19.762Z,22.31
2022-07-26T05:52:46.535Z,22.38
2022-07-26T05:55:13.640Z,22.40
2022-07-26T05:57:47.374Z,22.40
2022-07-26T06:00:16.947Z,22.41
2022-07-26T06:02:43.679Z,22.41
2022-07-26T06:05:10.822Z,22.46
2022-07-26T06:07:37.928Z,22.49
2022-07-26T06:10:05.375Z,22.52
2022-07-26T06:12:32.091Z,22.58
2022-07-26T06:14:58.802Z,22.65
2022-07-26T06:17:30.070Z,22.72
2022-07-26T06:19:58.213Z,22.81
2022-07-26T06:22:25.318Z,22.82
2022-07-26T06:24:52.147Z,22.93
2022-07-26T06:27:19.326Z,22.96
2022-07-26T06:29:48.502Z,22.92
2022-07-26T06:32:15.456Z,22.73
2022-07-26T06:34:42.299Z,22.74
2022-07-26T06:37:09.026Z,22.78
2022-07-26T06:39:35.685Z,22.79
2022-07-26T06:42:02.421Z,22.91
2022-07-26T06:44:29.104Z,22.98
2022-07-26T06:46:55.817Z,22.98
2022-07-26T06:49:23.241Z,23.03
2022-07-26T06:51:50.298Z,22.98
2022-07-26T06:54:17.082Z,22.99
2022-07-26T06:56:43.955Z,22.99
2022-07-26T06:59:10.688Z,23.05
2022-07-26T07:01:59.644Z,23.09
2022-07-26T07:04:24.141Z,22.97
2022-07-26T07:06:50.878Z,22.98
2022-07-26T07:09:17.606Z,22.99
2022-07-26T07:11:46.144Z,23.03
2022-07-26T07:14:16.195Z,23.17
2022-07-26T07:16:42.872Z,23.26
2022-07-26T07:19:09.843Z,23.34
2022-07-26T07:21:36.522Z,23.36
2022-07-26T07:24:03.344Z,23.32
2022-07-26T07:26:30.028Z,23.32
2022-07-26T07:28:56.873Z,23.16
2022-07-26T07:31:30.625Z,23.00
2022-07-26T07:34:11.407Z,23.11
2022-07-26T07:36:38.362Z,23.11
2022-07-26T07:39:07.558Z,23.16
2022-07-26T07:41:38.155Z,23.23
2022-07-26T07:44:05.775Z,23.21
2022-07-26T07:46:32.843Z,23.24
2022-07-26T07:48:59.743Z,23.33
2022-07-26T07:51:27.854Z,23.27
2022-07-26T07:53:57.972Z,23.23
2022-07-26T07:56:26.361Z,23.35
2022-07-26T07:58:53.080Z,23.37
2022-07-26T08:01:20.275Z,23.36
2022-07-26T08:03:50.440Z,23.27
2022-07-26T08:08:44.284Z,23.45
2022-07-26T08:11:11.005Z,23.56
2022-07-26T08:13:39.430Z,23.56
2022-07-26T08:16:09.530Z,23.51
2022-07-26T08:18:39.611Z,23.55
2022-07-26T08:21:15.720Z,23.62
2022-07-26T08:23:42.502Z,23.55
2022-07-26T08:26:10.009Z,23.38
2022-07-26T08:28:58.428Z,23.39
2022-07-26T08:31:23.434Z,23.27
2022-07-26T08:33:50.075Z,23.36
2022-07-26T08:36:17.634Z,23.40
2022-07-26T08:38:48.124Z,23.42
2022-07-26T08:41:16.745Z,23.40
2022-07-26T08:43:43.622Z,23.43
2022-07-26T08:46:27.373Z,23.41
2022-07-26T08:48:57.643Z,23.53
2022-07-26T08:51:25.642Z,23.72
2022-07-26T08:54:05.380Z,23.67
2022-07-26T08:56:36.723Z,23.50
2022-07-26T08:59:05.594Z,23.47
2022-07-26T09:01:32.707Z,23.37
2022-07-26T09:04:30.313Z,23.40
2022-07-26T09:07:04.113Z,23.52
2022-07-26T09:09:32.456Z,23.68
2022-07-26T09:11:59.756Z,23.80
2022-07-26T09:14:37.532Z,23.78
2022-07-26T09:17:06.078Z,23.88
2022-07-26T09:19:34.533Z,23.94
2022-07-26T09:22:10.351Z,23.91
2022-07-26T09:24:47.579Z,24.03
2022-07-26T09:27:16.315Z,24.15
2022-07-26T09:29:50.995Z,24.19
2022-07-26T09:32:19.350Z,24.14
2022-07-26T09:34:59.268Z,24.15
2022-07-26T09:37:36.426Z,24.22
2022-07-26T09:40:07.025Z,24.22
2022-07-26T09:42:33.733Z,24.10
2022-07-26T09:45:00.541Z,24.12
2022-07-26T09:47:38.848Z,24.10
2022-07-26T09:50:19.038Z,24.12
2022-07-26T09:53:04.675Z,24.25
2022-07-26T09:55:40.985Z,24.31
2022-07-26T09:58:15.374Z,24.41
2022-07-26T10:00:43.655Z,24.50
2022-07-26T10:03:10.639Z,24.52
2022-07-26T10:05:37.872Z,24.46
2022-07-26T10:08:05.454Z,24.24
2022-07-26T10:10:37.163Z,24.17
2022-07-26T10:13:04.290Z,24.25
2022-07-26T10:15:46.847Z,24.35
2022-07-26T10:18:38.504Z,24.37
2022-07-26T10:21:29.988Z,24.23
2022-07-26T10:24:01.666Z,24.35
2022-07-26T10:26:31.488Z,24.39
2022-07-26T10:29:16.422Z,24.47
2022-07-26T10:31:44.031Z,24.51
2022-07-26T10:34:31.598Z,24.57
2022-07-26T10:37:00.425Z,24.52
2022-07-26T10:39:27.389Z,24.53
2022-07-26T10:42:02.181Z,24.37
2022-07-26T10:44:34.582Z,24.28
2022-07-26T10:47:02.847Z,24.45
2022-07-26T10:49:40.509Z,24.60
2022-07-26T10:52:14.736Z,24.66
2022-07-26T10:54:56.756Z,24.59
2022-07-26T10:57:24.559Z,24.53
2022-07-26T10:59:56.154Z,24.52
2022-07-26T11:02:36.128Z,24.63
2022-07-26T11:05:04.501Z,24.68
2022-07-26T11:07:31.979Z,24.56
2022-07-26T11:09:59.475Z,24.63
2022-07-26T11:12:26.598Z,24.68
2022-07-26T11:14:54.294Z,24.68
2022-07-26T11:17:25.460Z,24.71
2022-07-26T11:19:52.303Z,24.80
2022-07-26T11:22:19.246Z,24.86
2022-07-26T11:24:46.377Z,24.89
2022-07-26T11:27:13.379Z,24.96
2022-07-26T11:29:41.380Z,25.03
2022-07-26T11:32:18.627Z,25.07
2022-07-26T11:34:46.407Z,25.18
2022-07-26T11:37:13.549Z,25.18
2022-07-26T11:39:40.358Z,25.18
2022-07-26T11:42:12.046Z,25.11
2022-07-26T11:44:43.387Z,25.09
2022-07-26T11:47:19.631Z,25.12
2022-07-26T11:49:51.911Z,25.18
2022-07-26T11:52:32.019Z,25.18
2022-07-26T11:54:59.476Z,25.23
2022-07-26T11:57:30.347Z,25.21
2022-07-26T11:59:58.394Z,25.17
2022-07-26T12:02:26.042Z,25.26
2022-07-26T12:05:20.567Z,25.32
2022-07-26T12:08:04.553Z,25.32
2022-07-26T12:10:31.501Z,25.36
2022-07-26T12:13:08.219Z,25.34
2022-07-26T12:15:50.553Z,25.19
2022-07-26T12:18:29.550Z,25.12
2022-07-26T12:21:08.922Z,25.16
2022-07-26T12:23:48.548Z,25.03
2022-07-26T12:26:22.309Z,25.05
2022-07-26T12:28:49.061Z,25.15
2022-07-26T12:31:25.164Z,25.13
2022-07-26T12:33:52.066Z,25.18
2022-07-26T12:36:27.456Z,25.31
2022-07-26T12:39:00.289Z,25.42
2022-07-26T12:41:34.281Z,25.41
2022-07-26T12:44:03.116Z,25.43
2022-07-26T12:46:32.720Z,25.46
2022-07-26T12:49:00.566Z,25.50
2022-07-26T12:51:27.816Z,25.46
2022-07-26T12:53:54.827Z,25.49
2022-07-26T12:56:21.541Z,25.57
2022-07-26T12:58:48.235Z,25.63
2022-07-26T13:01:14.984Z,25.67
2022-07-26T13:03:41.741Z,25.68
2022-07-26T13:06:08.442Z,25.57
2022-07-26T13:08:35.150Z,25.56
2022-07-26T13:11:01.880Z,25.52
2022-07-26T13:13:29.648Z,25.63
2022-07-26T13:15:56.335Z,25.71
2022-07-26T13:18:23.058Z,25.68
2022-07-26T13:20:49.725Z,25.66
2022-07-26T13:23:21.955Z,25.71
2022-07-26T13:25:49.882Z,25.72
2022-07-26T13:28:17.342Z,25.74
2022-07-26T13:30:45.089Z,25.84
2022-07-26T13:33:12.597Z,25.96
2022-07-26T13:35:41.117Z,25.96
2022-07-26T13:38:08.704Z,25.95
2022-07-26T13:40:36.088Z,25.97
2022-07-26T13:43:03.502Z,26.05
2022-07-26T13:45:30.312Z,26.09
2022-07-26T13:47:59.252Z,26.11
2022-07-26T13:50:27.511Z,26.17
2022-07-26T13:52:56.171Z,26.17
2022-07-26T13:55:23.498Z,26.11
2022-07-26T13:57:57.191Z,26.08
2022-07-26T14:00:28.958Z,26.12
2022-07-26T14:02:57.829Z,26.20
2022-07-26T14:05:24.886Z,26.23
2022-07-26T14:07:51.844Z,26.25
2022-07-26T14:10:19.389Z,26.27
2022-07-26T14:12:46.097Z,26.20
2022-07-26T14:15:18.061Z,26.10
2022-07-26T14:17:48.140Z,26.06
2022-07-26T14:20:17.135Z,26.11
2022-07-26T14:22:44.553Z,26.13
2022-07-26T14:25:11.322Z,26.12
2022-07-26T14:27:38.144Z,26.06
2022-07-26T14:30:05.294Z,26.15
2022-07-26T14:32:32.226Z,26.20
2022-07-26T14:34:59.750Z,26.30
2022-07-26T14:37:42.678Z,26.32
2022-07-26T14:40:13.213Z,26.22
2022-07-26T14:42:39.935Z,26.19
2022-07-26T14:45:07.896Z,26.12
2022-07-26T14:47:34.778Z,26.13
2022-07-26T14:50:06.214Z,26.18
2022-07-26T14:52:33.809Z,26.24
2022-07-26T14:55:00.609Z,26.29
2022-07-26T14:57:27.443Z,26.35
2022-07-26T14:59:54.084Z,26.35
2022-07-26T15:02:21.046Z,26.35
2022-07-26T15:04:47.743Z,26.35
2022-07-26T15:07:14.461Z,26.39
2022-07-26T15:09:41.307Z,26.45
2022-07-26T15:12:08.218Z,26.52
2022-07-26T15:14:35.985Z,26.49
2022-07-26T15:17:03.007Z,26.47
2022-07-26T15:19:29.669Z,26.50
2022-07-26T15:21:56.834Z,26.48
2022-07-26T15:24:24.430Z,26.51
2022-07-26T15:26:51.233Z,26.57
2022-07-26T15:29:17.925Z,26.58
2022-07-26T15:31:44.870Z,26.58
2022-07-26T15:34:12.133Z,26.58
2022-07-26T15:36:39.097Z,26.57
2022-07-26T15:39:16.649Z,26.59
2022-07-26T15:41:44.693Z,26.52
2022-07-26T15:44:12.467Z,26.42
2022-07-26T15:46:39.930Z,26.37
2022-07-26T15:49:07.712Z,26.44
2022-07-26T15:51:34.766Z,26.43
2022-07-26T15:54:02.607Z,26.44
2022-07-26T15:56:29.396Z,26.45
2022-07-26T15:58:56.275Z,26.44
2022-07-26T16:01:23.172Z,26.49
2022-07-26T16:03:50.104Z,26.48
2022-07-26T16:06:16.925Z,26.58
2022-07-26T16:09:05.972Z,26.69
2022-07-26T16:11:31.175Z,26.61
2022-07-26T16:14:01.269Z,26.66
2022-07-26T16:16:30.169Z,26.70
2022-07-26T16:18:57.114Z,26.72
2022-07-26T16:21:24.292Z,26.79
2022-07-26T16:23:51.410Z,26.88
2022-07-26T16:26:18.438Z,27.01
2022-07-26T16:28:45.183Z,27.07
2022-07-26T16:31:12.062Z,27.14
2022-07-26T16:33:39.148Z,27.18
2022-07-26T16:36:12.923Z,27.19
2022-07-26T16:38:39.658Z,27.11
2022-07-26T16:41:06.399Z,27.09
2022-07-26T16:43:34.513Z,27.09
2022-07-26T16:46:01.291Z,27.14
2022-07-26T16:48:28.138Z,27.17
2022-07-26T16:50:54.945Z,27.13
2022-07-26T16:53:21.651Z,27.12
2022-07-26T16:55:51.332Z,27.06
2022-07-26T16:58:19.002Z,26.97
2022-07-26T17:00:46.982Z,26.98
2022-07-26T17:03:15.948Z,27.01
2022-07-26T17:05:44.515Z,26.92
2022-07-26T17:08:11.482Z,26.87
2022-07-26T17:10:38.412Z,26.88
2022-07-26T17:13:05.126Z,26.92
2022-07-26T17:15:31.924Z,26.94
2022-07-26T17:17:58.662Z,27.02
2022-07-26T17:20:25.799Z,27.05
2022-07-26T17:22:52.683Z,26.91
2022-07-26T17:25:19.486Z,26.95
2022-07-26T17:27:46.216Z,26.94
2022-07-26T17:30:13.451Z,26.94
2022-07-26T17:32:40.166Z,26.98
2022-07-26T17:35:07.366Z,26.89
2022-07-26T17:37:36.808Z,26.77
2022-07-26T17:40:07.769Z,26.75
2022-07-26T17:42:35.096Z,26.76
2022-07-26T17:45:02.070Z,26.53
2022-07-26T17:47:30.590Z,26.40
2022-07-26T17:52:53.616Z,26.45
2022-07-26T17:55:20.972Z,26.47
2022-07-26T17:57:48.617Z,26.44
2022-07-26T18:00:18.488Z,26.52
2022-07-26T18:02:45.357Z,26.54
2022-07-26T18:05:12.167Z,26.56
2022-07-26T18:07:39.758Z,26.52
2022-07-26T18:10:07.404Z,26.47
2022-07-26T18:12:34.073Z,26.48
2022-07-26T18:15:00.727Z,26.34
2022-07-26T18:17:27.571Z,26.23
2022-07-26T18:19:54.358Z,26.33
2022-07-26T18:22:21.083Z,26.24
2022-07-26T18:24:47.746Z,26.18
2022-07-26T18:27:14.485Z,26.09
2022-07-26T18:29:41.655Z,26.15
2022-07-26T18:32:08.438Z,26.23
2022-07-26T18:34:35.086Z,26.26
2022-07-26T18:37:01.839Z,26.26
2022-07-26T18:39:32.639Z,26.31
2022-07-26T18:42:00.650Z,26.20
2022-07-26T18:44:27.388Z,26.23
2022-07-26T18:46:56.033Z,26.20
2022-07-26T18:49:23.283Z,26.10
2022-07-26T18:51:50.215Z,26.08
2022-07-26T18:54:19.557Z,25.96
2022-07-26T18:56:46.232Z,25.96
2022-07-26T18:59:13.366Z,25.92
2022-07-26T19:01:40.393Z,25.89
2022-07-26T19:04:07.675Z,25.79
2022-07-26T19:06:36.274Z,25.65
2022-07-26T19:09:03.075Z,25.73
2022-07-26T19:11:30.263Z,25.79
2022-07-26T19:13:57.031Z,25.72
2022-07-26T19:16:23.777Z,25.62
2022-07-26T19:18:55.322Z,25.50
2022-07-26T19:21:24.260Z,25.36
2022-07-26T19:23:50.952Z,25.19
2022-07-26T19:26:17.664Z,25.05
2022-07-26T19:28:44.341Z,25.01
2022-07-26T19:31:11.287Z,24.98
2022-07-26T19:33:38.100Z,24.88
2022-07-26T19:36:05.032Z,24.73
2022-07-26T19:38:33.023Z,24.57
2022-07-26T19:41:01.148Z,24.46
2022-07-26T19:43:28.662Z,24.36
2022-07-26T19:45:55.566Z,24.28
2022-07-26T19:48:22.407Z,24.25
2022-07-26T19:50:51.171Z,24.24
2022-07-26T19:53:17.913Z,24.17
2022-07-26T19:55:44.614Z,24.14
2022-07-26T19:58:11.586Z,24.07
2022-07-26T20:00:38.388Z,24.02
2022-07-26T20:03:05.187Z,23.90
2022-07-26T20:05:32.055Z,23.89
2022-07-26T20:08:00.096Z,23.87
2022-07-26T20:10:31.777Z,23.79
2022-07-26T20:12:59.211Z,23.75
2022-07-26T20:15:26.119Z,23.72
2022-07-26T20:17:52.964Z,23.60
2022-07-26T20:20:20.135Z,23.42
2022-07-26T20:22:46.921Z,23.31
2022-07-26T20:25:18.063Z,23.26
2022-07-26T20:27:49.913Z,23.19
2022-07-26T20:30:17.215Z,23.08
2022-07-26T20:32:44.530Z,22.97
2022-07-26T20:35:11.452Z,22.95
2022-07-26T20:37:38.247Z,22.90
2022-07-26T20:40:05.441Z,22.85
2022-07-26T20:42:35.210Z,22.83
2022-07-26T20:45:02.138Z,22.84
2022-07-26T20:47:28.840Z,22.86
2022-07-26T20:49:58.491Z,22.82
2022-07-26T20:52:29.487Z,22.78
2022-07-26T20:54:56.237Z,22.77
2022-07-26T20:57:23.584Z,22.72
2022-07-26T20:59:50.267Z,22.66
2022-07-26T21:02:17.331Z,22.61
2022-07-26T21:04:45.119Z,22.51
2022-07-26T21:07:12.162Z,22.44
2022-07-26T21:09:38.838Z,22.41
2022-07-26T21:12:05.903Z,22.44
2022-07-26T21:14:32.534Z,22.45
2022-07-26T21:16:59.813Z,22.46
2022-07-26T21:19:26.574Z,22.40
2022-07-26T21:21:57.042Z,22.33
2022-07-26T21:24:23.806Z,22.28
2022-07-26T21:26:50.465Z,22.29
2022-07-26T21:29:17.314Z,22.33
2022-07-26T21:31:43.968Z,22.30
2022-07-26T21:34:10.714Z,22.21
2022-07-26T21:36:40.259Z,22.18
2022-07-26T21:39:08.189Z,22.19
2022-07-26T21:41:35.365Z,22.12
2022-07-26T21:44:04.323Z,22.11
2022-07-26T21:46:31.165Z,22.11
2022-07-26T21:48:57.998Z,22.16
2022-07-26T21:51:24.766Z,22.16
2022-07-26T21:53:51.497Z,22.15
2022-07-26T21:56:18.185Z,22.16
2022-07-26T21:58:44.922Z,22.13
2022-07-26T22:01:14.242Z,22.12
2022-07-26T22:03:41.837Z,22.07
2022-07-26T22:06:09.276Z,22.02
2022-07-26T22:08:36.679Z,22.02
2022-07-26T22:11:03.682Z,22.02
2022-07-26T22:13:30.736Z,22.00
2022-07-26T22:15:57.495Z,21.99
2022-07-26T22:18:24.244Z,21.96
2022-07-26T22:20:51.186Z,21.96
2022-07-26T22:23:18.925Z,21.98
2022-07-26T22:25:45.660Z,22.04
2022-07-26T22:28:12.558Z,22.01
2022-07-26T22:30:45.943Z,21.96
2022-07-26T22:33:12.657Z,22.03
2022-07-26T22:35:40.129Z,22.04
2022-07-26T22:38:08.978Z,21.97
2022-07-26T22:40:37.215Z,22.00
2022-07-26T22:43:04.361Z,21.96
2022-07-26T22:45:31.660Z,21.91
2022-07-26T22:47:58.661Z,21.89
2022-07-26T22:50:25.623Z,21.90
2022-07-26T22:52:52.627Z,21.87
2022-07-26T22:55:19.815Z,21.83
2022-07-26T22:57:46.878Z,21.82
2022-07-26T23:00:16.114Z,21.81
2022-07-26T23:02:42.875Z,21.84
2022-07-26T23:05:10.475Z,21.84
2022-07-26T23:07:37.804Z,21.83
2022-07-26T23:10:06.260Z,21.83
2022-07-26T23:12:33.109Z,21.86
2022-07-26T23:15:00.003Z,21.90
2022-07-26T23:17:26.658Z,21.89
2022-07-26T23:19:53.440Z,21.85
2022-07-26T23:22:20.153Z,21.80
2022-07-26T23:24:46.900Z,21.75
2022-07-26T23:27:19.576Z,21.70
2022-07-26T23:29:48.323Z,21.73
2022-07-26T23:32:15.889Z,21.75
2022-07-26T23:34:42.825Z,21.73
2022-07-26T23:37:09.650Z,21.70
2022-07-26T23:39:36.450Z,21.75
2022-07-26T23:42:03.412Z,21.77
2022-07-26T23:44:30.871Z,21.67
2022-07-26T23:46:58.464Z,21.64
2022-07-26T23:49:25.891Z,21.58
2022-07-26T23:51:52.729Z,21.52
2022-07-26T23:54:19.493Z,21.53
2022-07-26T23:56:46.246Z,21.47
2022-07-26T23:59:13.819Z,21.40
